createdAt,value
2022-12-06T00:01:32.167Z,101001.85
2022-12-06T00:04:03.921Z,101000.41
2022-12-06T00:06:33.958Z,100999.00
2022-12-06T00:09:01.985Z,100998.63
2022-12-06T00:11:32.371Z,100994.46
2022-12-06T00:14:03.086Z,100994.08
2022-12-06T00:16:32.282Z,100995.08
2022-12-06T00:19:01.162Z,100993.25
2022-12-06T00:21:36.806Z,100990.42
2022-12-06T00:24:12.087Z,100989.29
2022-12-06T00:26:42.809Z,100982.06
2022-12-06T00:29:18.957Z,100970.86
2022-12-06T00:31:47.315Z,100968.20
2022-12-06T00:34:15.407Z,100965.51
2022-12-06T00:36:43.781Z,100969.04
2022-12-06T00:39:14.855Z,100972.27
2022-12-06T00:41:43.251Z,100971.15
2022-12-06T00:44:11.896Z,100973.62
2022-12-06T00:46:40.070Z,100971.94
2022-12-06T00:49:09.901Z,100970.60
2022-12-06T00:51:38.875Z,100965.58
2022-12-06T00:54:07.570Z,100965.45
2022-12-06T00:56:36.787Z,100958.42
2022-12-06T00:59:06.371Z,100958.81
2022-12-06T01:01:36.467Z,100954.56
2022-12-06T01:04:06.823Z,100957.80
2022-12-06T01:06:37.034Z,100957.33
2022-12-06T01:09:09.587Z,100961.77
2022-12-06T01:11:37.848Z,100965.34
2022-12-06T01:14:06.333Z,100964.88
2022-12-06T01:16:35.345Z,100960.08
2022-12-06T01:19:05.604Z,100960.52
2022-12-06T01:21:33.937Z,100956.13
2022-12-06T01:24:01.839Z,100958.04
2022-12-06T01:26:32.490Z,100958.20
2022-12-06T01:29:01.385Z,100965.77
2022-12-06T01:31:37.283Z,100970.48
2022-12-06T01:34:15.873Z,100971.84
2022-12-06T01:36:45.721Z,100967.27
2022-12-06T01:39:13.922Z,100971.05
2022-12-06T01:41:42.102Z,100971.23
2022-12-06T01:44:38.023Z,100976.92
2022-12-06T01:47:11.728Z,100975.19
2022-12-06T01:49:41.560Z,100969.53
2022-12-06T01:52:13.898Z,100960.61
2022-12-06T01:54:42.261Z,100959.99
2022-12-06T01:57:13.475Z,100961.98
2022-12-06T01:59:42.086Z,100959.11
2022-12-06T02:02:10.278Z,100952.98
2022-12-06T02:04:39.402Z,100950.67
2022-12-06T02:07:08.804Z,100941.83
2022-12-06T02:09:38.312Z,100936.23
2022-12-06T02:12:12.603Z,100933.64
2022-12-06T02:14:43.243Z,100928.83
2022-12-06T02:17:35.614Z,100925.85
2022-12-06T02:20:29.474Z,100918.68
2022-12-06T02:23:31.857Z,100908.27
2022-12-06T02:26:14.470Z,100894.12
2022-12-06T02:29:22.884Z,100884.39
2022-12-06T02:32:17.193Z,100894.98
2022-12-06T02:35:09.615Z,100900.66
2022-12-06T02:37:47.843Z,100889.84
2022-12-06T02:40:25.527Z,100887.70
2022-12-06T02:43:08.568Z,100881.49
2022-12-06T02:45:43.117Z,100867.74
2022-12-06T02:48:13.891Z,100863.35
2022-12-06T02:50:52.012Z,100859.33
2022-12-06T02:53:22.542Z,100855.94
2022-12-06T02:55:51.994Z,100852.31
2022-12-06T02:58:19.830Z,100850.52
2022-12-06T03:00:56.207Z,100855.34
2022-12-06T03:03:42.841Z,100852.80
2022-12-06T03:06:32.599Z,100856.42
2022-12-06T03:09:18.323Z,100860.14
2022-12-06T03:11:55.447Z,100865.73
2022-12-06T03:14:27.091Z,100866.00
2022-12-06T03:17:07.829Z,100866.46
2022-12-06T03:19:40.959Z,100865.84
2022-12-06T03:22:23.958Z,100863.66
2022-12-06T03:24:52.876Z,100857.31
2022-12-06T03:27:23.388Z,100855.40
2022-12-06T03:29:55.781Z,100857.86
2022-12-06T03:32:29.683Z,100855.38
2022-12-06T03:35:02.177Z,100851.23
2022-12-06T03:37:32.786Z,100850.35
2022-12-06T03:40:14.899Z,100848.98
2022-12-06T03:42:43.068Z,100848.00
2022-12-06T03:45:12.549Z,100844.45
2022-12-06T03:48:08.775Z,100840.77
2022-12-06T03:50:45.955Z,100842.02
2022-12-06T03:53:17.757Z,100837.23
2022-12-06T03:55:46.033Z,100836.51
2022-12-06T03:58:14.518Z,100831.98
2022-12-06T04:00:42.385Z,100830.17
2022-12-06T04:03:10.252Z,100833.69
2022-12-06T04:05:38.125Z,100830.18
2022-12-06T04:08:06.124Z,100830.83
2022-12-06T04:10:33.949Z,100822.85
2022-12-06T04:13:01.941Z,100825.11
2022-12-06T04:15:38.773Z,100828.50
2022-12-06T04:18:13.728Z,100830.09
2022-12-06T04:21:07.814Z,100831.59
2022-12-06T04:23:38.574Z,100834.92
2022-12-06T04:26:09.786Z,100828.86
2022-12-06T04:28:56.106Z,100825.30
2022-12-06T04:31:43.096Z,100822.01
2022-12-06T04:34:30.585Z,100816.82
2022-12-06T04:37:17.842Z,100818.14
2022-12-06T04:39:46.043Z,100818.74
2022-12-06T04:42:32.837Z,100828.48
2022-12-06T04:45:00.820Z,100827.23
2022-12-06T04:47:29.353Z,100822.88
2022-12-06T04:49:57.424Z,100816.45
2022-12-06T04:52:25.649Z,100814.23
2022-12-06T04:54:53.523Z,100809.98
2022-12-06T04:57:21.391Z,100811.71
2022-12-06T04:59:51.204Z,100816.41
2022-12-06T05:02:19.168Z,100815.09
2022-12-06T05:04:47.451Z,100811.54
2022-12-06T05:07:15.313Z,100807.84
2022-12-06T05:09:43.282Z,100805.00
2022-12-06T05:12:11.149Z,100804.12
2022-12-06T05:14:38.921Z,100805.70
2022-12-06T05:17:06.995Z,100806.67
2022-12-06T05:19:34.923Z,100803.50
2022-12-06T05:22:02.669Z,100802.70
2022-12-06T05:24:30.473Z,100804.63
2022-12-06T05:26:58.256Z,100805.10
2022-12-06T05:29:26.119Z,100805.48
2022-12-06T05:31:53.958Z,100803.88
2022-12-06T05:34:21.965Z,100804.73
2022-12-06T05:36:49.787Z,100806.52
2022-12-06T05:39:17.692Z,100803.40
2022-12-06T05:41:45.667Z,100804.48
2022-12-06T05:44:13.631Z,100805.70
2022-12-06T05:46:41.705Z,100805.45
2022-12-06T05:49:09.751Z,100802.73
2022-12-06T05:51:37.687Z,100803.76
2022-12-06T05:54:06.771Z,100800.35
2022-12-06T05:56:34.920Z,100795.10
2022-12-06T05:59:03.607Z,100797.33
2022-12-06T06:01:32.089Z,100794.23
2022-12-06T06:03:59.951Z,100788.77
2022-12-06T06:06:28.578Z,100785.50
2022-12-06T06:08:56.396Z,100785.48
2022-12-06T06:11:24.359Z,100781.95
2022-12-06T06:13:54.602Z,100782.14
2022-12-06T06:16:22.850Z,100786.63
2022-12-06T06:18:50.953Z,100787.72
2022-12-06T06:21:18.925Z,100787.15
2022-12-06T06:23:46.687Z,100791.61
2022-12-06T06:26:14.548Z,100788.79
2022-12-06T06:28:42.626Z,100790.16
2022-12-06T06:31:10.596Z,100790.52
2022-12-06T06:33:38.505Z,100786.27
2022-12-06T06:36:06.942Z,100783.77
2022-12-06T06:38:34.917Z,100783.14
2022-12-06T06:41:04.319Z,100777.34
2022-12-06T06:43:33.109Z,100770.66
2022-12-06T06:46:04.893Z,100761.46
2022-12-06T06:48:35.614Z,100760.20
2022-12-06T06:51:09.791Z,100774.23
2022-12-06T06:53:38.493Z,100779.65
2022-12-06T06:56:07.604Z,100773.18
2022-12-06T06:58:35.470Z,100768.77
2022-12-06T07:01:05.912Z,100771.24
2022-12-06T07:03:35.208Z,100771.08
2022-12-06T07:06:07.878Z,100763.64
2022-12-06T07:08:36.268Z,100770.27
2022-12-06T07:11:04.778Z,100771.23
2022-12-06T07:13:32.960Z,100773.38
2022-12-06T07:16:07.952Z,100775.48
2022-12-06T07:18:35.810Z,100779.02
2022-12-06T07:21:06.448Z,100775.96
2022-12-06T07:23:36.161Z,100781.19
2022-12-06T07:26:07.829Z,100782.36
2022-12-06T07:28:40.462Z,100786.86
2022-12-06T07:31:11.113Z,100787.73
2022-12-06T07:33:40.532Z,100785.87
2022-12-06T07:36:12.411Z,100783.06
2022-12-06T07:38:49.730Z,100794.71
2022-12-06T07:41:37.466Z,100794.23
2022-12-06T07:44:33.745Z,100787.04
2022-12-06T07:47:02.132Z,100787.73
2022-12-06T07:49:30.203Z,100791.38
2022-12-06T07:51:58.380Z,100785.71
2022-12-06T07:54:26.546Z,100787.55
2022-12-06T07:56:56.520Z,100781.97
2022-12-06T07:59:25.050Z,100777.05
2022-12-06T08:01:53.643Z,100774.07
2022-12-06T08:04:22.572Z,100778.00
2022-12-06T08:06:50.581Z,100780.09
2022-12-06T08:09:18.665Z,100777.41
2022-12-06T08:11:46.581Z,100778.94
2022-12-06T08:14:16.048Z,100781.70
2022-12-06T08:16:43.917Z,100779.58
2022-12-06T08:19:12.087Z,100777.41
2022-12-06T08:21:40.051Z,100775.95
2022-12-06T08:24:08.021Z,100778.51
2022-12-06T08:26:36.608Z,100776.41
2022-12-06T08:29:04.433Z,100776.43
2022-12-06T08:31:34.853Z,100775.27
2022-12-06T08:34:03.963Z,100772.64
2022-12-06T08:36:31.871Z,100767.73
2022-12-06T08:39:00.699Z,100766.73
2022-12-06T08:41:47.542Z,100762.85
2022-12-06T08:44:16.585Z,100761.75
2022-12-06T08:46:45.105Z,100764.01
2022-12-06T08:49:15.784Z,100756.67
2022-12-06T08:51:43.812Z,100756.02
2022-12-06T08:54:16.064Z,100755.89
2022-12-06T08:56:44.405Z,100756.56
2022-12-06T08:59:12.849Z,100756.05
2022-12-06T09:01:42.013Z,100755.06
2022-12-06T09:04:11.256Z,100756.39
2022-12-06T09:06:41.370Z,100758.54
2022-12-06T09:09:11.118Z,100755.85
2022-12-06T09:11:40.647Z,100760.47
2022-12-06T09:14:10.610Z,100759.17
2022-12-06T09:16:41.579Z,100758.08
2022-12-06T09:19:10.984Z,100757.22
2022-12-06T09:21:43.053Z,100754.15
2022-12-06T09:24:17.155Z,100754.30
2022-12-06T09:26:45.894Z,100751.95
2022-12-06T09:29:15.403Z,100747.17
2022-12-06T09:31:43.568Z,100748.29
2022-12-06T09:34:12.936Z,100748.89
2022-12-06T09:36:46.550Z,100745.66
2022-12-06T09:39:23.512Z,100739.47
2022-12-06T09:41:57.633Z,100740.24
2022-12-06T09:45:01.236Z,100741.12
2022-12-06T09:47:43.142Z,100735.88
2022-12-06T09:50:24.120Z,100730.09
2022-12-06T09:52:54.700Z,100721.33
2022-12-06T09:55:29.527Z,100719.98
2022-12-06T09:58:24.635Z,100714.79
2022-12-06T10:01:18.097Z,100711.98
2022-12-06T10:03:54.920Z,100707.68
2022-12-06T10:06:26.798Z,100706.64
2022-12-06T10:09:03.697Z,100705.27
2022-12-06T10:11:54.130Z,100702.86
2022-12-06T10:14:40.964Z,100703.55
2022-12-06T10:17:11.907Z,100700.89
2022-12-06T10:20:07.529Z,100703.52
2022-12-06T10:22:35.287Z,100701.27
2022-12-06T10:25:08.482Z,100704.71
2022-12-06T10:27:46.818Z,100698.61
2022-12-06T10:30:17.024Z,100694.08
2022-12-06T10:33:09.821Z,100691.86
2022-12-06T10:35:42.548Z,100692.25
2022-12-06T10:38:20.282Z,100689.08
2022-12-06T10:41:14.951Z,100692.43
2022-12-06T10:44:05.340Z,100685.44
2022-12-06T10:47:05.291Z,100682.10
2022-12-06T10:49:41.854Z,100677.23
2022-12-06T10:52:40.828Z,100672.23
2022-12-06T10:55:12.177Z,100670.30
2022-12-06T10:58:08.220Z,100667.73
2022-12-06T11:01:00.741Z,100675.69
2022-12-06T11:03:56.215Z,100674.64
2022-12-06T11:06:43.613Z,100669.51
2022-12-06T11:09:31.638Z,100669.21
2022-12-06T11:12:00.023Z,100668.62
2022-12-06T11:14:46.728Z,100668.45
2022-12-06T11:17:16.978Z,100669.58
2022-12-06T11:19:50.490Z,100660.62
2022-12-06T11:22:45.995Z,100659.37
2022-12-06T11:25:23.560Z,100663.56
2022-12-06T11:28:05.446Z,100665.08
2022-12-06T11:30:33.847Z,100668.29
2022-12-06T11:33:03.661Z,100666.29
2022-12-06T11:35:31.818Z,100670.36
2022-12-06T11:38:03.533Z,100663.96
2022-12-06T11:40:35.987Z,100661.30
2022-12-06T11:43:09.352Z,100656.71
2022-12-06T11:45:41.166Z,100652.42
2022-12-06T11:48:23.008Z,100650.02
2022-12-06T11:50:53.328Z,100645.80
2022-12-06T11:53:55.500Z,100644.96
2022-12-06T11:56:37.190Z,100641.55
2022-12-06T11:59:17.208Z,100632.65
2022-12-06T12:01:48.950Z,100627.70
2022-12-06T12:04:36.260Z,100623.35
2022-12-06T12:07:13.931Z,100622.18
2022-12-06T12:09:56.338Z,100623.00
2022-12-06T12:12:59.668Z,100619.69
2022-12-06T12:15:28.325Z,100621.06
2022-12-06T12:17:58.693Z,100616.52
2022-12-06T12:20:39.640Z,100616.32
2022-12-06T12:23:18.171Z,100610.17
2022-12-06T12:26:07.950Z,100606.35
2022-12-06T12:28:38.546Z,100608.00
2022-12-06T12:31:20.344Z,100605.94
2022-12-06T12:34:08.868Z,100605.58
2022-12-06T12:36:36.772Z,100606.81
2022-12-06T12:39:04.739Z,100596.65
2022-12-06T12:41:44.054Z,100587.95
2022-12-06T12:44:40.015Z,100583.64
2022-12-06T12:47:18.988Z,100584.32
2022-12-06T12:50:13.925Z,100584.40
2022-12-06T12:52:42.713Z,100585.55
2022-12-06T12:55:13.382Z,100580.75
2022-12-06T12:57:43.884Z,100570.52
2022-12-06T13:00:20.736Z,100572.47
2022-12-06T13:02:56.936Z,100566.63
2022-12-06T13:05:34.363Z,100567.95
2022-12-06T13:08:15.494Z,100571.02
2022-12-06T13:10:47.252Z,100576.77
2022-12-06T13:13:50.139Z,100579.52
2022-12-06T13:16:34.189Z,100579.17
2022-12-06T13:19:03.490Z,100580.55
2022-12-06T13:21:38.029Z,100584.95
2022-12-06T13:24:11.281Z,100588.98
2022-12-06T13:26:44.503Z,100586.28
2022-12-06T13:29:24.052Z,100591.84
2022-12-06T13:31:54.884Z,100589.68
2022-12-06T13:34:37.402Z,100588.43
2022-12-06T13:37:26.345Z,100593.90
2022-12-06T13:39:54.519Z,100597.64
2022-12-06T13:42:36.695Z,100601.70
2022-12-06T13:45:36.579Z,100601.33
2022-12-06T13:48:24.589Z,100599.71
2022-12-06T13:51:03.018Z,100603.39
2022-12-06T13:53:34.164Z,100598.55
2022-12-06T13:56:20.851Z,100598.36
2022-12-06T13:58:52.432Z,100595.98
2022-12-06T14:01:35.528Z,100589.19
2022-12-06T14:09:45.661Z,100587.27
2022-12-06T14:12:19.503Z,100588.61
2022-12-06T14:14:58.891Z,100587.41
2022-12-06T14:20:29.121Z,100581.17
2022-12-06T14:22:57.827Z,100578.04
2022-12-06T14:25:29.865Z,100576.38
2022-12-06T14:28:12.967Z,100571.31
2022-12-06T14:30:42.106Z,100559.74
2022-12-06T14:33:38.830Z,100564.54
2022-12-06T14:36:17.340Z,100566.08
2022-12-06T14:38:52.882Z,100568.54
2022-12-06T14:41:40.207Z,100569.55
2022-12-06T14:44:15.543Z,100571.64
2022-12-06T14:46:46.576Z,100568.30
2022-12-06T14:49:36.997Z,100569.45
2022-12-06T14:52:20.226Z,100565.77
2022-12-06T14:54:48.613Z,100565.70
2022-12-06T14:57:27.431Z,100565.70
2022-12-06T15:00:26.268Z,100563.94
2022-12-06T15:03:00.230Z,100563.51
2022-12-06T15:05:52.319Z,100561.19
2022-12-06T15:08:26.697Z,100564.30
2022-12-06T15:10:55.682Z,100563.43
2022-12-06T15:13:24.682Z,100560.73
2022-12-06T15:16:10.058Z,100561.91
2022-12-06T15:18:40.786Z,100559.18
2022-12-06T15:21:13.971Z,100557.77
2022-12-06T15:23:53.229Z,100553.73
2022-12-06T15:26:23.465Z,100557.36
2022-12-06T15:28:51.820Z,100556.14
2022-12-06T15:31:27.279Z,100554.15
2022-12-06T15:33:56.060Z,100551.73
2022-12-06T15:36:31.146Z,100549.45
2022-12-06T15:38:59.065Z,100546.23
2022-12-06T15:41:29.095Z,100545.51
2022-12-06T15:44:00.272Z,100544.60
2022-12-06T15:46:29.866Z,100545.68
2022-12-06T15:48:59.648Z,100547.59
2022-12-06T15:51:29.256Z,100544.14
2022-12-06T15:53:58.654Z,100542.16
2022-12-06T15:56:30.237Z,100543.10
2022-12-06T15:58:58.485Z,100537.23
2022-12-06T16:01:28.933Z,100536.97
2022-12-06T16:03:58.032Z,100535.06
2022-12-06T16:06:27.822Z,100534.09
2022-12-06T16:08:56.927Z,100536.35
2022-12-06T16:11:27.141Z,100533.17
2022-12-06T16:13:55.324Z,100533.03
2022-12-06T16:16:23.608Z,100532.54
2022-12-06T16:18:52.283Z,100529.29
2022-12-06T16:21:29.055Z,100530.75
2022-12-06T16:24:17.443Z,100525.36
2022-12-06T16:26:46.244Z,100527.70
2022-12-06T16:29:23.706Z,100527.48
2022-12-06T16:31:53.078Z,100528.95
2022-12-06T16:34:21.366Z,100533.00
2022-12-06T16:37:04.318Z,100528.26
2022-12-06T16:39:34.643Z,100525.85
2022-12-06T16:42:04.428Z,100522.58
2022-12-06T16:44:32.607Z,100524.21
2022-12-06T16:47:00.630Z,100523.10
2022-12-06T16:49:45.818Z,100524.27
2022-12-06T16:52:15.856Z,100525.55
2022-12-06T16:54:44.252Z,100525.52
2022-12-06T16:57:13.447Z,100523.69
2022-12-06T16:59:42.939Z,100521.23
2022-12-06T17:02:27.688Z,100521.83
2022-12-06T17:05:01.313Z,100523.70
2022-12-06T17:07:30.212Z,100519.86
2022-12-06T17:09:58.995Z,100522.39
2022-12-06T17:12:27.588Z,100522.67
2022-12-06T17:14:55.553Z,100527.91
2022-12-06T17:17:26.053Z,100526.84
2022-12-06T17:19:56.365Z,100524.48
2022-12-06T17:22:24.847Z,100526.55
2022-12-06T17:24:53.200Z,100529.61
2022-12-06T17:27:21.544Z,100532.07
2022-12-06T17:29:49.722Z,100533.24
2022-12-06T17:32:18.407Z,100531.10
2022-12-06T17:34:46.989Z,100528.42
2022-12-06T17:37:15.161Z,100530.59
2022-12-06T17:39:43.316Z,100528.66
2022-12-06T17:42:31.651Z,100525.99
2022-12-06T17:45:00.106Z,100525.57
2022-12-06T17:47:28.756Z,100528.61
2022-12-06T17:49:57.181Z,100526.80
2022-12-06T17:52:25.420Z,100528.05
2022-12-06T17:54:53.895Z,100527.18
2022-12-06T17:57:21.808Z,100530.42
2022-12-06T17:59:49.732Z,100528.08
2022-12-06T18:02:24.141Z,100530.55
2022-12-06T18:04:54.033Z,100529.73
2022-12-06T18:07:22.348Z,100523.91
2022-12-06T18:09:50.412Z,100522.28
2022-12-06T18:12:18.837Z,100517.48
2022-12-06T18:14:46.982Z,100522.16
2022-12-06T18:17:15.154Z,100517.88
2022-12-06T18:19:46.950Z,100520.69
2022-12-06T18:22:15.767Z,100519.91
2022-12-06T18:24:44.895Z,100517.04
2022-12-06T18:27:13.886Z,100520.25
2022-12-06T18:29:42.167Z,100514.63
2022-12-06T18:32:10.423Z,100510.71
2022-12-06T18:34:39.032Z,100512.97
2022-12-06T18:37:06.864Z,100507.76
2022-12-06T18:39:34.962Z,100511.98
2022-12-06T18:42:03.141Z,100507.13
2022-12-06T18:44:31.208Z,100513.02
2022-12-06T18:46:59.085Z,100512.39
2022-12-06T18:49:27.044Z,100511.11
2022-12-06T18:51:55.118Z,100511.73
2022-12-06T18:54:22.997Z,100509.50
2022-12-06T18:56:50.852Z,100511.95
2022-12-06T18:59:23.170Z,100511.13
2022-12-06T19:01:54.085Z,100506.65
2022-12-06T19:04:22.857Z,100508.04
2022-12-06T19:06:50.841Z,100510.67
2022-12-06T19:09:18.797Z,100508.03
2022-12-06T19:11:46.879Z,100509.86
2022-12-06T19:14:16.383Z,100505.81
2022-12-06T19:16:47.413Z,100508.51
2022-12-06T19:19:21.880Z,100508.34
2022-12-06T19:21:51.959Z,100510.50
2022-12-06T19:24:22.956Z,100511.61
2022-12-06T19:26:52.402Z,100510.05
2022-12-06T19:29:21.193Z,100510.70
2022-12-06T19:31:49.118Z,100511.08
2022-12-06T19:34:20.958Z,100511.65
2022-12-06T19:36:50.788Z,100510.85
2022-12-06T19:39:20.038Z,100506.80
2022-12-06T19:42:06.950Z,100503.32
2022-12-06T19:44:35.119Z,100504.05
2022-12-06T19:47:03.502Z,100505.63
2022-12-06T19:49:31.674Z,100499.52
2022-12-06T19:52:00.113Z,100497.02
2022-12-06T19:54:31.402Z,100498.26
2022-12-06T19:57:00.849Z,100493.27
2022-12-06T19:59:31.993Z,100490.75
2022-12-06T20:02:00.594Z,100488.85
2022-12-06T20:04:34.037Z,100481.77
2022-12-06T20:07:04.891Z,100480.34
2022-12-06T20:09:34.173Z,100479.36
2022-12-06T20:12:04.838Z,100474.44
2022-12-06T20:14:38.722Z,100471.13
2022-12-06T20:17:09.999Z,100469.23
2022-12-06T20:19:39.511Z,100466.89
2022-12-06T20:22:07.406Z,100465.98
2022-12-06T20:24:35.368Z,100468.55
2022-12-06T20:27:03.273Z,100455.92
2022-12-06T20:29:32.845Z,100458.66
2022-12-06T20:32:01.751Z,100454.89
2022-12-06T20:34:34.218Z,100455.69
2022-12-06T20:37:06.102Z,100456.45
2022-12-06T20:39:35.855Z,100456.23
2022-12-06T20:42:07.067Z,100450.06
2022-12-06T20:44:35.653Z,100449.08
2022-12-06T20:47:04.501Z,100448.59
2022-12-06T20:49:32.930Z,100450.09
2022-12-06T20:52:02.978Z,100450.23
2022-12-06T20:54:31.232Z,100450.78
2022-12-06T20:56:59.388Z,100445.13
2022-12-06T20:59:29.521Z,100448.08
2022-12-06T21:01:57.834Z,100440.77
2022-12-06T21:04:26.902Z,100437.01
2022-12-06T21:06:55.578Z,100435.05
2022-12-06T21:09:24.471Z,100432.69
2022-12-06T21:11:52.435Z,100430.30
2022-12-06T21:14:20.506Z,100424.31
2022-12-06T21:16:48.585Z,100426.54
2022-12-06T21:19:19.633Z,100428.06
2022-12-06T21:21:51.284Z,100427.49
2022-12-06T21:24:21.385Z,100431.41
2022-12-06T21:26:49.883Z,100429.94
2022-12-06T21:29:30.152Z,100431.45
2022-12-06T21:32:02.270Z,100432.21
2022-12-06T21:34:30.283Z,100434.23
2022-12-06T21:36:58.659Z,100431.79
2022-12-06T21:39:26.524Z,100434.23
2022-12-06T21:41:54.847Z,100433.45
2022-12-06T21:44:24.000Z,100434.17
2022-12-06T21:46:53.391Z,100435.92
2022-12-06T21:49:21.527Z,100432.08
2022-12-06T21:51:49.549Z,100433.25
2022-12-06T21:54:17.415Z,100432.32
2022-12-06T21:56:45.428Z,100425.98
2022-12-06T21:59:13.379Z,100423.25
2022-12-06T22:01:41.480Z,100420.44
2022-12-06T22:04:09.345Z,100418.08
2022-12-06T22:06:37.368Z,100415.34
2022-12-06T22:09:06.582Z,100418.10
2022-12-06T22:11:35.170Z,100409.50
2022-12-06T22:14:05.041Z,100414.73
2022-12-06T22:16:33.135Z,100410.07
2022-12-06T22:19:01.730Z,100406.56
2022-12-06T22:21:32.163Z,100402.52
2022-12-06T22:24:00.633Z,100404.27
2022-12-06T22:26:30.494Z,100403.20
2022-12-06T22:29:00.065Z,100402.34
2022-12-06T22:31:33.715Z,100399.27
2022-12-06T22:34:03.161Z,100396.55
2022-12-06T22:36:31.951Z,100391.67
2022-12-06T22:39:02.413Z,100393.83
2022-12-06T22:41:30.704Z,100394.39
2022-12-06T22:44:01.147Z,100389.71
2022-12-06T22:46:30.471Z,100390.16
2022-12-06T22:48:59.898Z,100390.36
2022-12-06T22:51:40.518Z,100388.50
2022-12-06T22:54:13.244Z,100390.94
2022-12-06T22:56:48.307Z,100384.85
2022-12-06T22:59:17.533Z,100383.67
2022-12-06T23:01:45.546Z,100383.60
2022-12-06T23:04:13.752Z,100378.28
2022-12-06T23:06:42.004Z,100378.59
2022-12-06T23:09:14.382Z,100376.46
2022-12-06T23:11:42.964Z,100376.98
2022-12-06T23:14:11.749Z,100375.52
2022-12-06T23:16:41.634Z,100377.64
2022-12-06T23:19:09.821Z,100373.89
2022-12-06T23:21:38.771Z,100374.93
2022-12-06T23:24:09.670Z,100374.64
2022-12-06T23:26:43.831Z,100375.10
2022-12-06T23:29:12.799Z,100375.42
2022-12-06T23:31:43.128Z,100374.65
2022-12-06T23:34:16.194Z,100369.73
2022-12-06T23:36:44.890Z,100369.86
2022-12-06T23:39:13.253Z,100368.64
2022-12-06T23:41:41.124Z,100365.85
2022-12-06T23:44:11.146Z,100362.50
2022-12-06T23:46:40.850Z,100363.77
2022-12-06T23:49:16.923Z,100364.90
2022-12-06T23:51:46.146Z,100366.80
2022-12-06T23:54:16.859Z,100371.06
2022-12-06T23:56:44.835Z,100367.11
2022-12-06T23:59:14.845Z,100365.27
